Time,TemperatureF,DewpointF,PressureIn,WindDirection,WindDirectionDegrees,WindSpeedMPH,WindSpeedGustMPH,Humidity,HourlyPrecipIn,Conditions,Clouds,dailyrainin,SoftwareType,DateUTC
2013-01-29 00:04:00,34.3,33.3,30.11,SSE,157,0.0,0.0,96,0.08,,,1.77,WUHU21623XXSP,2013-01-29 08:04:00,
2013-01-29 00:10:00,34.3,33.3,30.12,SW,225,0.0,0.0,96,0.08,,,0.00,WUHU21623XXSP,2013-01-29 08:10:00,
2013-01-29 00:15:00,34.3,33.3,30.12,SW,225,0.0,1.3,96,0.08,,,0.02,WUHU21623XXSP,2013-01-29 08:15:00,
2013-01-29 00:20:00,34.3,33.3,30.12,SW,225,0.0,1.3,96,0.06,,,0.02,WUHU21623XXSP,2013-01-29 08:20:00,
2013-01-29 00:25:00,34.3,33.3,30.12,SW,225,0.0,0.0,96,0.06,,,0.02,WUHU21623XXSP,2013-01-29 08:25:00,
2013-01-29 00:30:00,34.3,33.3,30.12,SSW,202,0.0,0.0,96,0.06,,,0.02,WUHU21623XXSP,2013-01-29 08:30:00,
2013-01-29 00:35:00,34.3,33.3,30.12,SSW,202,0.0,1.3,96,0.04,,,0.02,WUHU21623XXSP,2013-01-29 08:35:00,
2013-01-29 00:40:00,34.3,33.3,30.12,SSW,202,0.0,1.3,96,0.06,,,0.04,WUHU21623XXSP,2013-01-29 08:40:00,
2013-01-29 00:45:00,34.3,33.3,30.12,SSW,202,0.0,0.0,96,0.04,,,0.04,WUHU21623XXSP,2013-01-29 08:45:00,
2013-01-29 00:50:00,34.3,33.3,30.12,SSW,202,0.0,0.0,96,0.04,,,0.04,WUHU21623XXSP,2013-01-29 08:50:00,
2013-01-29 00:55:00,34.3,33.3,30.12,SSW,202,1.1,4.7,96,0.04,,,0.04,WUHU21623XXSP,2013-01-29 08:55:00,
2013-01-29 01:00:00,34.3,33.3,30.12,SW,225,0.0,4.7,96,0.04,,,0.04,WUHU21623XXSP,2013-01-29 09:00:00,
2013-01-29 01:05:00,34.3,33.3,30.12,SW,225,0.0,2.9,96,0.04,,,0.04,WUHU21623XXSP,2013-01-29 09:05:00,
2013-01-29 01:10:00,34.3,33.3,30.12,SW,225,0.0,1.1,96,0.04,,,0.04,WUHU21623XXSP,2013-01-29 09:10:00,
2013-01-29 01:15:00,34.3,33.3,30.12,SW,225,0.0,1.1,96,0.02,,,0.04,WUHU21623XXSP,2013-01-29 09:15:00,
2013-01-29 01:20:00,34.3,33.3,30.12,SSW,202,0.9,1.3,96,0.02,,,0.04,WUHU21623XXSP,2013-01-29 09:20:00,
2013-01-29 01:25:00,34.3,33.3,30.13,SSW,202,0.0,1.6,96,0.02,,,0.04,WUHU21623XXSP,2013-01-29 09:25:00,
2013-01-29 01:30:00,34.3,33.3,30.13,SSW,202,0.0,1.6,96,0.02,,,0.04,WUHU21623XXSP,2013-01-29 09:30:00,
2013-01-29 01:35:00,34.3,33.3,30.12,SSW,202,0.0,1.8,96,0.02,,,0.04,WUHU21623XXSP,2013-01-29 09:35:00,
2013-01-29 01:40:00,34.3,33.3,30.13,SSW,202,0.0,1.8,96,0.00,,,0.04,WUHU21623XXSP,2013-01-29 09:40:00,
2013-01-29 01:45:00,34.5,33.4,30.13,SSW,202,0.0,0.0,96,0.00,,,0.04,WUHU21623XXSP,2013-01-29 09:45:00,
2013-01-29 01:50:00,34.5,33.4,30.13,SSW,202,0.0,0.0,96,0.00,,,0.04,WUHU21623XXSP,2013-01-29 09:50:00,
2013-01-29 01:55:00,34.5,33.4,30.14,SSW,202,0.0,0.0,96,0.02,,,0.06,WUHU21623XXSP,2013-01-29 09:55:00,
2013-01-29 02:00:00,34.5,33.4,30.14,SSW,202,0.0,0.0,96,0.02,,,0.06,WUHU21623XXSP,2013-01-29 10:00:00,
2013-01-29 02:05:00,34.7,33.6,30.14,SSW,202,0.0,0.0,96,0.02,,,0.06,WUHU21623XXSP,2013-01-29 10:05:00,
2013-01-29 02:10:00,34.7,33.6,30.14,SSW,202,0.0,0.0,96,0.02,,,0.06,WUHU21623XXSP,2013-01-29 10:10:00,
2013-01-29 02:15:00,34.7,33.6,30.14,SSW,202,0.0,0.0,96,0.02,,,0.06,WUHU21623XXSP,2013-01-29 10:15:00,
2013-01-29 02:20:00,34.7,33.6,30.14,SSW,202,0.0,0.0,96,0.02,,,0.06,WUHU21623XXSP,2013-01-29 10:20:00,
2013-01-29 02:25:00,34.7,33.6,30.14,SSW,202,0.0,0.0,96,0.02,,,0.06,WUHU21623XXSP,2013-01-29 10:25:00,
2013-01-29 02:30:00,34.9,33.8,30.15,SSW,202,0.0,0.0,96,0.02,,,0.06,WUHU21623XXSP,2013-01-29 10:30:00,
2013-01-29 02:35:00,34.9,33.8,30.15,SSW,202,0.0,0.0,96,0.02,,,0.06,WUHU21623XXSP,2013-01-29 10:35:00,
2013-01-29 02:40:00,34.9,33.8,30.14,SSW,202,0.0,0.0,96,0.02,,,0.06,WUHU21623XXSP,2013-01-29 10:40:00,
2013-01-29 02:45:00,34.9,33.8,30.14,SSW,202,0.0,0.0,96,0.02,,,0.06,WUHU21623XXSP,2013-01-29 10:45:00,
2013-01-29 02:50:00,34.9,33.8,30.15,SSW,202,0.0,0.0,96,0.02,,,0.06,WUHU21623XXSP,2013-01-29 10:50:00,
2013-01-29 02:55:00,34.9,33.8,30.15,SSW,202,0.0,1.8,96,0.02,,,0.08,WUHU21623XXSP,2013-01-29 10:55:00,
2013-01-29 03:01:00,34.9,33.8,30.16,SSW,202,0.0,1.8,96,0.02,,,0.08,WUHU21623XXSP,2013-01-29 11:01:00,
2013-01-29 03:06:00,34.9,33.8,30.16,SSW,202,0.7,0.7,96,0.02,,,0.08,WUHU21623XXSP,2013-01-29 11:06:00,
2013-01-29 03:11:00,34.9,33.8,30.16,SW,225,0.0,0.9,96,0.02,,,0.08,WUHU21623XXSP,2013-01-29 11:11:00,
2013-01-29 03:14:00,35.1,34.0,30.16,WSW,247,0.0,0.9,96,0.02,,,0.08,WUHU21623XXSP,2013-01-29 11:14:00,
2013-01-29 03:19:00,34.9,33.8,30.16,WSW,247,0.0,0.0,96,0.02,,,0.08,WUHU21623XXSP,2013-01-29 11:19:00,
2013-01-29 03:35:00,35.1,34.0,30.17,WSW,247,0.0,0.0,96,0.02,,,0.08,WUHU21623XXSP,2013-01-29 11:35:00,
2013-01-29 03:40:00,35.2,34.2,30.17,WSW,247,0.0,0.0,96,0.02,,,0.08,WUHU21623XXSP,2013-01-29 11:40:00,
2013-01-29 03:45:00,35.2,34.2,30.18,WSW,247,0.0,0.0,96,0.04,,,0.10,WUHU21623XXSP,2013-01-29 11:45:00,
2013-01-29 03:50:00,35.2,34.2,30.17,WSW,247,0.0,0.0,96,0.04,,,0.10,WUHU21623XXSP,2013-01-29 11:50:00,
2013-01-29 03:55:00,35.2,34.2,30.18,WSW,247,0.0,0.0,96,0.02,,,0.10,WUHU21623XXSP,2013-01-29 11:55:00,
2013-01-29 04:00:00,35.2,34.2,30.17,WSW,247,0.0,0.0,96,0.02,,,0.10,WUHU21623XXSP,2013-01-29 12:00:00,
2013-01-29 04:05:00,35.2,34.2,30.17,WSW,247,0.0,0.0,96,0.02,,,0.10,WUHU21623XXSP,2013-01-29 12:05:00,
2013-01-29 04:10:00,35.2,34.2,30.18,WSW,247,0.0,0.0,96,0.04,,,0.12,WUHU21623XXSP,2013-01-29 12:10:00,
2013-01-29 04:15:00,35.2,34.2,30.18,WSW,247,0.0,0.0,96,0.06,,,0.14,WUHU21623XXSP,2013-01-29 12:15:00,
2013-01-29 04:20:00,35.2,34.2,30.18,SW,225,0.0,0.0,96,0.06,,,0.14,WUHU21623XXSP,2013-01-29 12:20:00,
2013-01-29 04:25:00,35.4,34.3,30.18,SW,225,0.0,0.0,96,0.08,,,0.16,WUHU21623XXSP,2013-01-29 12:25:00,
2013-01-29 04:30:00,35.4,34.3,30.18,SW,225,0.0,0.0,96,0.08,,,0.16,WUHU21623XXSP,2013-01-29 12:30:00,
2013-01-29 04:35:00,35.4,34.3,30.18,SW,225,0.0,0.0,96,0.08,,,0.16,WUHU21623XXSP,2013-01-29 12:35:00,
2013-01-29 04:40:00,35.4,34.3,30.18,SW,225,0.0,0.0,96,0.06,,,0.16,WUHU21623XXSP,2013-01-29 12:40:00,
2013-01-29 04:45:00,35.4,34.3,30.18,SW,225,0.0,0.0,96,0.08,,,0.19,WUHU21623XXSP,2013-01-29 12:45:00,
2013-01-29 04:50:00,35.4,34.3,30.18,SW,225,0.0,0.0,96,0.10,,,0.21,WUHU21623XXSP,2013-01-29 12:50:00,
2013-01-29 04:55:00,35.4,34.3,30.19,SW,225,0.0,0.0,96,0.10,,,0.21,WUHU21623XXSP,2013-01-29 12:55:00,
2013-01-29 05:00:00,35.4,34.3,30.19,SW,225,0.0,0.0,96,0.12,,,0.23,WUHU21623XXSP,2013-01-29 13:00:00,
2013-01-29 05:05:00,35.4,34.3,30.19,SW,225,0.0,0.0,96,0.10,,,0.23,WUHU21623XXSP,2013-01-29 13:05:00,
2013-01-29 05:10:00,35.4,34.3,30.19,SW,225,0.0,0.0,96,0.10,,,0.23,WUHU21623XXSP,2013-01-29 13:10:00,
2013-01-29 05:15:00,35.6,34.5,30.20,SW,225,0.0,0.0,96,0.10,,,0.25,WUHU21623XXSP,2013-01-29 13:15:00,
2013-01-29 05:20:00,35.8,34.7,30.20,SW,225,0.0,0.0,96,0.08,,,0.25,WUHU21623XXSP,2013-01-29 13:20:00,
2013-01-29 05:25:00,35.8,34.7,30.20,WSW,247,0.0,0.0,96,0.08,,,0.25,WUHU21623XXSP,2013-01-29 13:25:00,
2013-01-29 05:30:00,35.8,34.7,30.20,WSW,247,0.0,0.0,96,0.10,,,0.27,WUHU21623XXSP,2013-01-29 13:30:00,
2013-01-29 05:35:00,35.8,34.7,30.20,WSW,247,0.0,0.0,96,0.10,,,0.27,WUHU21623XXSP,2013-01-29 13:35:00,
2013-01-29 05:40:00,35.8,34.7,30.21,WSW,247,0.0,0.0,96,0.08,,,0.27,WUHU21623XXSP,2013-01-29 13:40:00,
2013-01-29 05:45:00,36.0,34.9,30.21,SW,225,0.0,0.0,96,0.10,,,0.29,WUHU21623XXSP,2013-01-29 13:45:00,
2013-01-29 05:50:00,36.0,34.9,30.21,SW,225,0.0,0.0,96,0.10,,,0.31,WUHU21623XXSP,2013-01-29 13:50:00,
2013-01-29 05:55:00,36.0,34.9,30.21,SSE,157,0.0,2.5,96,0.12,,,0.33,WUHU21623XXSP,2013-01-29 13:55:00,
2013-01-29 06:00:00,36.0,34.9,30.22,SSE,157,0.0,2.5,96,0.14,,,0.37,WUHU21623XXSP,2013-01-29 14:00:00,
2013-01-29 06:05:00,36.1,35.1,30.21,SSE,157,0.0,0.0,96,0.16,,,0.39,WUHU21623XXSP,2013-01-29 14:05:00,
2013-01-29 06:11:00,36.1,35.1,30.22,SSE,157,0.0,0.0,96,0.16,,,0.39,WUHU21623XXSP,2013-01-29 14:11:00,
2013-01-29 06:16:00,36.1,35.1,30.22,SSE,157,0.0,0.0,96,0.16,,,0.41,WUHU21623XXSP,2013-01-29 14:16:00,
2013-01-29 06:21:00,36.1,35.1,30.22,SSE,157,0.0,0.0,96,0.16,,,0.41,WUHU21623XXSP,2013-01-29 14:21:00,
2013-01-29 06:25:00,36.1,35.1,30.22,SSE,157,0.0,0.0,96,0.20,,,0.43,WUHU21623XXSP,2013-01-29 14:25:00,
2013-01-29 06:30:00,36.1,35.1,30.22,SSE,157,0.0,0.0,96,0.20,,,0.47,WUHU21623XXSP,2013-01-29 14:30:00,
2013-01-29 06:36:00,36.1,35.1,30.22,SSE,157,0.0,0.0,96,0.22,,,0.49,WUHU21623XXSP,2013-01-29 14:36:00,
2013-01-29 06:41:00,36.1,35.1,30.22,SSE,157,0.0,0.0,96,0.22,,,0.51,WUHU21623XXSP,2013-01-29 14:41:00,
2013-01-29 06:46:00,36.3,35.2,30.22,SSE,157,0.0,0.0,96,0.24,,,0.53,WUHU21623XXSP,2013-01-29 14:46:00,
2013-01-29 06:51:00,36.3,35.2,30.22,SSE,157,0.0,0.0,96,0.22,,,0.53,WUHU21623XXSP,2013-01-29 14:51:00,
2013-01-29 06:56:00,36.3,35.2,30.22,SSE,157,0.0,0.0,96,0.20,,,0.55,WUHU21623XXSP,2013-01-29 14:56:00,
2013-01-29 07:01:00,36.3,35.2,30.22,SSE,157,0.0,0.0,96,0.18,,,0.55,WUHU21623XXSP,2013-01-29 15:01:00,
2013-01-29 07:06:00,36.3,35.2,30.23,SSE,157,0.0,0.0,96,0.16,,,0.55,WUHU21623XXSP,2013-01-29 15:06:00,
2013-01-29 07:11:00,36.3,35.2,30.23,SSE,157,0.0,0.0,96,0.18,,,0.57,WUHU21623XXSP,2013-01-29 15:11:00,
2013-01-29 07:16:00,36.3,35.2,30.24,SSE,157,0.0,0.0,96,0.16,,,0.57,WUHU21623XXSP,2013-01-29 15:16:00,
2013-01-29 07:21:00,36.3,35.2,30.24,SSE,157,0.0,0.0,96,0.14,,,0.57,WUHU21623XXSP,2013-01-29 15:21:00,
2013-01-29 07:26:00,36.3,35.2,30.24,SSE,157,0.0,0.0,96,0.12,,,0.59,WUHU21623XXSP,2013-01-29 15:26:00,
2013-01-29 07:31:00,36.3,35.2,30.24,SSE,157,0.0,0.0,96,0.14,,,0.61,WUHU21623XXSP,2013-01-29 15:31:00,
2013-01-29 07:36:00,36.3,35.2,30.25,SSE,157,0.0,0.0,96,0.10,,,0.61,WUHU21623XXSP,2013-01-29 15:36:00,
2013-01-29 07:41:00,36.5,35.4,30.25,SSE,157,2.5,3.1,96,0.10,,,0.61,WUHU21623XXSP,2013-01-29 15:41:00,
2013-01-29 07:46:00,36.5,35.4,30.25,SSE,157,0.0,3.1,96,0.08,,,0.61,WUHU21623XXSP,2013-01-29 15:46:00,
2013-01-29 07:51:00,36.5,35.4,30.25,SSE,157,0.0,2.2,96,0.08,,,0.61,WUHU21623XXSP,2013-01-29 15:51:00,
2013-01-29 07:56:00,36.7,35.6,30.25,SSE,157,0.0,2.2,96,0.06,,,0.61,WUHU21623XXSP,2013-01-29 15:56:00,
2013-01-29 08:01:00,36.7,35.6,30.25,SSE,157,0.0,2.2,96,0.06,,,0.61,WUHU21623XXSP,2013-01-29 16:01:00,
2013-01-29 08:06:00,36.7,35.6,30.25,South,180,1.6,3.6,96,0.04,,,0.61,WUHU21623XXSP,2013-01-29 16:06:00,
2013-01-29 08:11:00,36.7,35.8,30.26,South,180,0.7,3.6,96,0.04,,,0.61,WUHU21623XXSP,2013-01-29 16:11:00,
2013-01-29 08:16:00,36.7,35.6,30.25,South,180,0.0,2.0,96,0.04,,,0.61,WUHU21623XXSP,2013-01-29 16:16:00,
2013-01-29 08:21:00,36.9,35.8,30.26,South,180,0.0,2.9,96,0.02,,,0.61,WUHU21623XXSP,2013-01-29 16:21:00,
2013-01-29 08:26:00,36.9,35.8,30.26,South,180,0.0,2.9,96,0.02,,,0.61,WUHU21623XXSP,2013-01-29 16:26:00,
2013-01-29 08:31:00,37.0,36.0,30.26,South,180,0.0,1.8,96,0.00,,,0.61,WUHU21623XXSP,2013-01-29 16:31:00,
2013-01-29 08:36:00,37.0,36.0,30.27,SSE,157,0.0,2.5,96,0.00,,,0.61,WUHU21623XXSP,2013-01-29 16:36:00,
2013-01-29 08:41:00,37.0,36.0,30.26,SSE,157,0.0,2.7,96,0.00,,,0.61,WUHU21623XXSP,2013-01-29 16:41:00,
2013-01-29 08:46:00,37.2,36.1,30.27,SW,225,0.0,4.0,96,0.00,,,0.61,WUHU21623XXSP,2013-01-29 16:46:00,
2013-01-29 08:51:00,37.2,36.1,30.27,South,180,1.6,4.0,96,0.00,,,0.61,WUHU21623XXSP,2013-01-29 16:51:00,
2013-01-29 08:56:00,37.2,36.1,30.27,SW,225,0.0,3.1,96,0.00,,,0.61,WUHU21623XXSP,2013-01-29 16:56:00,
2013-01-29 09:01:00,37.6,36.5,30.27,SSE,157,2.5,4.5,96,0.00,,,0.61,WUHU21623XXSP,2013-01-29 17:01:00,
2013-01-29 09:06:00,37.6,36.5,30.28,SSW,202,1.6,6.0,96,0.00,,,0.61,WUHU21623XXSP,2013-01-29 17:06:00,
2013-01-29 09:11:00,37.6,36.5,30.28,South,180,2.2,6.0,96,0.00,,,0.61,WUHU21623XXSP,2013-01-29 17:11:00,
2013-01-29 09:16:00,37.8,36.7,30.28,SSE,157,3.4,3.4,96,0.00,,,0.61,WUHU21623XXSP,2013-01-29 17:16:00,
2013-01-29 09:21:00,37.9,36.9,30.28,SSE,157,0.0,3.4,96,0.00,,,0.61,WUHU21623XXSP,2013-01-29 17:21:00,
2013-01-29 09:26:00,37.9,36.9,30.28,SSE,157,1.3,2.5,96,0.00,,,0.61,WUHU21623XXSP,2013-01-29 17:26:00,
2013-01-29 09:31:00,38.1,37.3,30.29,SSE,157,0.0,3.4,97,0.00,,,0.61,WUHU21623XXSP,2013-01-29 17:31:00,
2013-01-29 09:36:00,38.3,37.5,30.30,SSE,157,0.0,3.4,97,0.00,,,0.61,WUHU21623XXSP,2013-01-29 17:36:00,
2013-01-29 09:41:00,38.3,37.5,30.30,SSE,157,0.0,1.6,97,0.00,,,0.61,WUHU21623XXSP,2013-01-29 17:41:00,
2013-01-29 09:46:00,38.3,37.5,30.30,SSE,157,0.0,0.9,97,0.00,,,0.61,WUHU21623XXSP,2013-01-29 17:46:00,
2013-01-29 09:51:00,38.5,37.7,30.30,SSE,157,0.4,2.0,97,0.00,,,0.61,WUHU21623XXSP,2013-01-29 17:51:00,
2013-01-29 09:56:00,38.5,37.7,30.30,SSE,157,0.0,2.0,97,0.00,,,0.61,WUHU21623XXSP,2013-01-29 17:56:00,
2013-01-29 10:01:00,38.5,37.7,30.31,SSE,157,0.0,0.4,97,0.00,,,0.61,WUHU21623XXSP,2013-01-29 18:01:00,
2013-01-29 10:07:00,38.5,37.7,30.30,SSE,157,0.0,0.9,97,0.00,,,0.61,WUHU21623XXSP,2013-01-29 18:07:00,
2013-01-29 10:12:00,38.7,37.9,30.31,SSE,157,0.0,1.1,97,0.00,,,0.61,WUHU21623XXSP,2013-01-29 18:12:00,
2013-01-29 10:17:00,38.8,38.0,30.31,SSE,157,0.0,1.1,97,0.00,,,0.61,WUHU21623XXSP,2013-01-29 18:17:00,
2013-01-29 10:22:00,38.8,38.0,30.32,SSE,157,0.0,2.5,97,0.00,,,0.61,WUHU21623XXSP,2013-01-29 18:22:00,
2013-01-29 10:27:00,39.0,38.2,30.32,SSE,157,2.5,2.5,97,0.00,,,0.61,WUHU21623XXSP,2013-01-29 18:27:00,
2013-01-29 10:32:00,39.0,38.2,30.32,SSE,157,0.0,2.7,97,0.00,,,0.61,WUHU21623XXSP,2013-01-29 18:32:00,
2013-01-29 10:37:00,39.4,38.6,30.32,South,180,0.0,2.7,97,0.00,,,0.61,WUHU21623XXSP,2013-01-29 18:37:00,
2013-01-29 10:42:00,39.4,38.6,30.32,South,180,1.1,2.2,97,0.00,,,0.61,WUHU21623XXSP,2013-01-29 18:42:00,
2013-01-29 10:47:00,39.4,38.6,30.32,South,180,0.0,2.7,97,0.00,,,0.61,WUHU21623XXSP,2013-01-29 18:47:00,
2013-01-29 10:52:00,39.4,38.6,30.32,South,180,0.0,3.8,97,0.00,,,0.61,WUHU21623XXSP,2013-01-29 18:52:00,
2013-01-29 10:57:00,39.6,38.8,30.32,South,180,0.0,3.8,97,0.00,,,0.61,WUHU21623XXSP,2013-01-29 18:57:00,
2013-01-29 11:02:00,39.6,38.8,30.32,South,180,1.1,2.0,97,0.00,,,0.61,WUHU21623XXSP,2013-01-29 19:02:00,
2013-01-29 11:07:00,39.6,38.8,30.32,South,180,1.3,2.2,97,0.00,,,0.61,WUHU21623XXSP,2013-01-29 19:07:00,
2013-01-29 11:12:00,39.7,38.9,30.33,South,180,1.1,2.2,97,0.00,,,0.61,WUHU21623XXSP,2013-01-29 19:12:00,
2013-01-29 11:17:00,39.9,39.1,30.33,South,180,0.0,4.3,97,0.00,,,0.61,WUHU21623XXSP,2013-01-29 19:17:00,
2013-01-29 11:22:00,39.9,39.1,30.33,SW,225,1.3,4.3,97,0.00,,,0.61,WUHU21623XXSP,2013-01-29 19:22:00,
2013-01-29 11:27:00,39.9,39.1,30.33,SW,225,0.7,1.3,97,0.00,,,0.61,WUHU21623XXSP,2013-01-29 19:27:00,
2013-01-29 11:32:00,39.9,39.1,30.33,South,180,2.5,3.6,97,0.00,,,0.61,WUHU21623XXSP,2013-01-29 19:32:00,
2013-01-29 11:37:00,39.9,39.1,30.34,SSE,157,0.4,4.5,97,0.00,,,0.61,WUHU21623XXSP,2013-01-29 19:37:00,
2013-01-29 11:42:00,40.1,39.3,30.34,SSE,157,0.0,4.5,97,0.00,,,0.61,WUHU21623XXSP,2013-01-29 19:42:00,
2013-01-29 11:47:00,40.1,39.3,30.34,SSE,157,0.0,1.8,97,0.00,,,0.61,WUHU21623XXSP,2013-01-29 19:47:00,
2013-01-29 11:52:00,40.1,39.3,30.34,SSE,157,2.2,2.7,97,0.00,,,0.61,WUHU21623XXSP,2013-01-29 19:52:00,
2013-01-29 11:57:00,40.1,39.3,30.33,SSE,157,2.5,2.9,97,0.00,,,0.61,WUHU21623XXSP,2013-01-29 19:57:00,
2013-01-29 11:58:00,40.3,39.5,30.33,SSE,157,0.0,2.9,97,0.00,,,0.61,WUHU21623XXSP,2013-01-29 19:58:00,
2013-01-29 12:03:00,40.3,39.5,30.33,SSE,157,0.0,2.9,97,0.02,,,0.63,WUHU21623XXSP,2013-01-29 20:03:00,
2013-01-29 12:08:00,40.3,39.5,30.33,SSE,157,0.0,2.5,97,0.02,,,0.63,WUHU21623XXSP,2013-01-29 20:08:00,
2013-01-29 12:13:00,40.5,39.6,30.33,SSE,157,1.1,2.2,97,0.02,,,0.63,WUHU21623XXSP,2013-01-29 20:13:00,
2013-01-29 12:18:00,40.6,39.8,30.34,SSE,157,0.0,2.2,97,0.02,,,0.63,WUHU21623XXSP,2013-01-29 20:18:00,
2013-01-29 12:23:00,40.6,39.8,30.34,SSE,157,0.0,2.0,97,0.02,,,0.63,WUHU21623XXSP,2013-01-29 20:23:00,
2013-01-29 12:28:00,40.8,40.0,30.34,SSE,157,0.0,1.8,97,0.02,,,0.63,WUHU21623XXSP,2013-01-29 20:28:00,
2013-01-29 12:33:00,40.8,40.0,30.34,SSE,157,0.0,1.3,97,0.02,,,0.63,WUHU21623XXSP,2013-01-29 20:33:00,
2013-01-29 12:38:00,40.8,40.0,30.34,SSE,157,0.0,0.7,97,0.04,,,0.65,WUHU21623XXSP,2013-01-29 20:38:00,
2013-01-29 12:43:00,40.8,39.7,30.34,SSE,157,0.0,0.7,96,0.04,,,0.65,WUHU21623XXSP,2013-01-29 20:43:00,
2013-01-29 12:48:00,40.8,39.7,30.34,SSE,157,1.1,1.8,96,0.04,,,0.65,WUHU21623XXSP,2013-01-29 20:48:00,
2013-01-29 12:53:00,40.8,39.7,30.34,SSE,157,0.0,1.8,96,0.06,,,0.67,WUHU21623XXSP,2013-01-29 20:53:00,
2013-01-29 12:58:00,40.8,39.7,30.34,SSE,157,0.0,1.8,96,0.06,,,0.67,WUHU21623XXSP,2013-01-29 20:58:00,
2013-01-29 13:03:00,40.8,39.7,30.34,SSE,157,0.0,1.8,96,0.06,,,0.70,WUHU21623XXSP,2013-01-29 21:03:00,
2013-01-29 13:08:00,40.8,39.7,30.34,SSE,157,0.0,1.8,96,0.06,,,0.70,WUHU21623XXSP,2013-01-29 21:08:00,
2013-01-29 13:13:00,40.8,39.7,30.34,SSE,157,1.3,2.7,96,0.08,,,0.72,WUHU21623XXSP,2013-01-29 21:13:00,
2013-01-29 13:18:00,40.8,39.7,30.34,SSE,157,0.0,2.7,96,0.08,,,0.72,WUHU21623XXSP,2013-01-29 21:18:00,
2013-01-29 13:23:00,41.0,39.9,30.34,SSE,157,0.0,2.0,96,0.08,,,0.72,WUHU21623XXSP,2013-01-29 21:23:00,
2013-01-29 13:28:00,41.0,39.9,30.34,SSE,157,0.9,2.0,96,0.10,,,0.74,WUHU21623XXSP,2013-01-29 21:28:00,
2013-01-29 13:33:00,41.0,39.9,30.34,SSE,157,2.0,2.0,96,0.08,,,0.74,WUHU21623XXSP,2013-01-29 21:33:00,
2013-01-29 13:38:00,41.2,40.1,30.34,SSE,157,0.0,2.5,96,0.08,,,0.74,WUHU21623XXSP,2013-01-29 21:38:00,
2013-01-29 13:43:00,41.0,39.9,30.34,SSE,157,0.0,2.5,96,0.10,,,0.76,WUHU21623XXSP,2013-01-29 21:43:00,
2013-01-29 13:48:00,41.2,40.1,30.34,SSE,157,0.0,1.3,96,0.08,,,0.76,WUHU21623XXSP,2013-01-29 21:48:00,
2013-01-29 13:53:00,41.2,40.1,30.35,South,180,0.0,2.7,96,0.10,,,0.78,WUHU21623XXSP,2013-01-29 21:53:00,
2013-01-29 13:58:00,41.2,40.1,30.35,South,180,0.7,2.7,96,0.10,,,0.78,WUHU21623XXSP,2013-01-29 21:58:00,
2013-01-29 14:03:00,41.2,40.1,30.35,South,180,0.0,2.0,96,0.08,,,0.78,WUHU21623XXSP,2013-01-29 22:03:00,
2013-01-29 14:08:00,41.2,40.1,30.35,South,180,0.0,2.0,96,0.08,,,0.80,WUHU21623XXSP,2013-01-29 22:08:00,
2013-01-29 14:13:00,41.2,40.1,30.34,South,180,0.0,0.9,96,0.08,,,0.80,WUHU21623XXSP,2013-01-29 22:13:00,
2013-01-29 14:18:00,41.2,40.1,30.35,South,180,0.0,1.1,96,0.08,,,0.80,WUHU21623XXSP,2013-01-29 22:18:00,
2013-01-29 14:23:00,41.2,40.1,30.35,South,180,0.7,3.1,96,0.10,,,0.82,WUHU21623XXSP,2013-01-29 22:23:00,
2013-01-29 14:29:00,41.2,40.1,30.34,South,180,1.6,3.1,96,0.08,,,0.82,WUHU21623XXSP,2013-01-29 22:29:00,
2013-01-29 14:34:00,41.2,40.1,30.34,South,180,0.2,1.8,96,0.08,,,0.82,WUHU21623XXSP,2013-01-29 22:34:00,
2013-01-29 14:39:00,41.2,40.1,30.35,South,180,0.7,1.6,96,0.10,,,0.84,WUHU21623XXSP,2013-01-29 22:39:00,
2013-01-29 14:44:00,41.4,40.3,30.35,South,180,0.0,1.3,96,0.08,,,0.84,WUHU21623XXSP,2013-01-29 22:44:00,
2013-01-29 14:49:00,41.2,40.1,30.35,South,180,0.0,1.3,96,0.08,,,0.84,WUHU21623XXSP,2013-01-29 22:49:00,
2013-01-29 14:54:00,41.2,40.1,30.35,South,180,0.0,2.9,96,0.06,,,0.84,WUHU21623XXSP,2013-01-29 22:54:00,
2013-01-29 14:59:00,41.2,40.1,30.35,South,180,0.0,2.9,96,0.08,,,0.86,WUHU21623XXSP,2013-01-29 22:59:00,
2013-01-29 15:04:00,41.2,40.1,30.35,SSE,157,2.7,4.5,96,0.06,,,0.86,WUHU21623XXSP,2013-01-29 23:04:00,
2013-01-29 15:09:00,41.2,40.1,30.35,SSE,157,3.6,4.5,96,0.06,,,0.86,WUHU21623XXSP,2013-01-29 23:09:00,
2013-01-29 15:14:00,41.2,40.1,30.35,SSE,157,0.0,6.3,96,0.06,,,0.86,WUHU21623XXSP,2013-01-29 23:14:00,
2013-01-29 15:19:00,41.2,40.1,30.35,South,180,1.6,6.3,96,0.08,,,0.88,WUHU21623XXSP,2013-01-29 23:19:00,
2013-01-29 15:24:00,41.2,40.1,30.35,SE,135,3.4,6.7,96,0.06,,,0.88,WUHU21623XXSP,2013-01-29 23:24:00,
2013-01-29 15:29:00,40.8,39.7,30.35,SSE,157,0.0,6.7,96,0.06,,,0.88,WUHU21623XXSP,2013-01-29 23:29:00,
2013-01-29 15:34:00,40.8,39.7,30.35,ENE,67,0.0,6.5,96,0.08,,,0.90,WUHU21623XXSP,2013-01-29 23:34:00,
2013-01-29 15:39:00,40.6,39.6,30.35,ESE,112,0.0,6.5,96,0.06,,,0.90,WUHU21623XXSP,2013-01-29 23:39:00,
2013-01-29 15:44:00,40.6,39.6,30.36,East,90,2.5,5.6,96,0.06,,,0.90,WUHU21623XXSP,2013-01-29 23:44:00,
2013-01-29 15:49:00,40.6,39.6,30.36,SE,135,0.0,5.6,96,0.06,,,0.90,WUHU21623XXSP,2013-01-29 23:49:00,
2013-01-29 15:54:00,40.5,39.4,30.36,SSE,157,4.9,4.9,96,0.08,,,0.92,WUHU21623XXSP,2013-01-29 23:54:00,
2013-01-29 15:59:00,40.3,39.2,30.36,SSE,157,0.4,5.4,96,0.06,,,0.92,WUHU21623XXSP,2013-01-29 23:59:00,
2013-01-29 16:04:00,40.3,39.2,30.36,SE,135,0.0,5.4,96,0.08,,,0.94,WUHU21623XXSP,2013-01-30 00:04:00,
2013-01-29 16:09:00,40.1,39.0,30.36,SSE,157,0.9,3.1,96,0.08,,,0.94,WUHU21623XXSP,2013-01-30 00:09:00,
2013-01-29 16:14:00,39.9,38.8,30.35,SE,135,3.4,7.8,96,0.06,,,0.94,WUHU21623XXSP,2013-01-30 00:14:00,
2013-01-29 16:19:00,39.9,38.8,30.35,NNE,22,4.3,7.8,96,0.06,,,0.94,WUHU21623XXSP,2013-01-30 00:19:00,
2013-01-29 16:24:00,39.7,38.4,30.35,ENE,67,2.9,6.9,95,0.08,,,0.96,WUHU21623XXSP,2013-01-30 00:24:00,
2013-01-29 16:29:00,39.7,38.4,30.35,ENE,67,2.7,6.0,95,0.08,,,0.96,WUHU21623XXSP,2013-01-30 00:29:00,
2013-01-29 16:34:00,39.4,38.0,30.35,ENE,67,0.0,8.1,95,0.06,,,0.96,WUHU21623XXSP,2013-01-30 00:34:00,
2013-01-29 16:39:00,39.4,38.0,30.35,ESE,112,0.0,8.1,95,0.06,,,0.96,WUHU21623XXSP,2013-01-30 00:39:00,
2013-01-29 16:44:00,39.4,38.0,30.35,SE,135,1.6,7.2,95,0.06,,,0.96,WUHU21623XXSP,2013-01-30 00:44:00,
2013-01-29 16:49:00,39.4,38.0,30.35,NE,45,0.0,7.2,95,0.04,,,0.96,WUHU21623XXSP,2013-01-30 00:49:00,
2013-01-29 16:54:00,39.4,38.0,30.34,SE,135,0.4,6.0,95,0.04,,,0.96,WUHU21623XXSP,2013-01-30 00:54:00,
2013-01-29 16:59:00,39.4,38.0,30.35,SE,135,1.1,6.0,95,0.04,,,0.96,WUHU21623XXSP,2013-01-30 00:59:00,
2013-01-29 17:04:00,39.4,38.0,30.35,SSE,157,2.9,5.6,95,0.02,,,0.96,WUHU21623XXSP,2013-01-30 01:04:00,
2013-01-29 17:09:00,39.4,38.0,30.35,SSE,157,3.8,5.8,95,0.02,,,0.96,WUHU21623XXSP,2013-01-30 01:09:00,
2013-01-29 17:14:00,39.4,38.0,30.35,SE,135,0.0,4.3,95,0.02,,,0.96,WUHU21623XXSP,2013-01-30 01:14:00,
2013-01-29 17:19:00,39.4,38.0,30.35,ESE,112,0.0,4.3,95,0.02,,,0.96,WUHU21623XXSP,2013-01-30 01:19:00,
2013-01-29 17:25:00,39.4,38.0,30.35,SSW,202,5.1,5.6,95,0.00,,,0.96,WUHU21623XXSP,2013-01-30 01:25:00,
2013-01-29 17:30:00,39.4,37.8,30.35,South,180,0.0,6.9,94,0.00,,,0.96,WUHU21623XXSP,2013-01-30 01:30:00,
2013-01-29 17:35:00,39.4,37.8,30.35,SSE,157,4.3,6.9,94,0.00,,,0.96,WUHU21623XXSP,2013-01-30 01:35:00,
2013-01-29 17:40:00,39.4,37.8,30.35,SSE,157,1.8,6.3,94,0.00,,,0.96,WUHU21623XXSP,2013-01-30 01:40:00,
2013-01-29 17:45:00,39.2,37.6,30.36,SSE,157,0.0,4.0,94,0.00,,,0.96,WUHU21623XXSP,2013-01-30 01:45:00,
2013-01-29 17:50:00,39.0,37.4,30.36,ENE,67,3.1,4.0,94,0.00,,,0.96,WUHU21623XXSP,2013-01-30 01:50:00,
2013-01-29 17:55:00,39.0,37.4,30.36,South,180,0.0,3.1,94,0.00,,,0.96,WUHU21623XXSP,2013-01-30 01:55:00,
2013-01-29 18:00:00,39.0,37.4,30.36,SE,135,0.0,2.9,94,0.00,,,0.96,WUHU21623XXSP,2013-01-30 02:00:00,
2013-01-29 18:05:00,39.0,37.4,30.36,SSE,157,0.0,2.7,94,0.00,,,0.96,WUHU21623XXSP,2013-01-30 02:05:00,
2013-01-29 18:10:00,39.0,37.4,30.37,SW,225,0.0,2.7,94,0.00,,,0.96,WUHU21623XXSP,2013-01-30 02:10:00,
2013-01-29 18:15:00,39.0,37.4,30.35,SSE,157,1.6,3.6,94,0.00,,,0.96,WUHU21623XXSP,2013-01-30 02:15:00,
2013-01-29 18:20:00,39.0,37.4,30.35,SSE,157,1.1,3.6,94,0.00,,,0.96,WUHU21623XXSP,2013-01-30 02:20:00,
2013-01-29 18:25:00,39.0,37.4,30.35,SSE,157,0.0,3.6,94,0.02,,,0.98,WUHU21623XXSP,2013-01-30 02:25:00,
2013-01-29 18:30:00,39.0,37.4,30.35,South,180,0.0,3.6,94,0.02,,,0.98,WUHU21623XXSP,2013-01-30 02:30:00,
2013-01-29 18:35:00,39.0,37.4,30.35,SSE,157,2.0,3.8,94,0.02,,,0.98,WUHU21623XXSP,2013-01-30 02:35:00,
2013-01-29 18:40:00,39.0,37.7,30.35,SSE,157,2.7,3.8,95,0.04,,,1.00,WUHU21623XXSP,2013-01-30 02:40:00,
2013-01-29 18:45:00,39.0,37.7,30.35,SE,135,0.0,4.0,95,0.04,,,1.00,WUHU21623XXSP,2013-01-30 02:45:00,
2013-01-29 18:50:00,39.2,37.9,30.35,South,180,0.0,4.0,95,0.06,,,1.02,WUHU21623XXSP,2013-01-30 02:50:00,
2013-01-29 18:55:00,39.4,38.0,30.35,South,180,0.0,3.1,95,0.06,,,1.02,WUHU21623XXSP,2013-01-30 02:55:00,
2013-01-29 19:00:00,39.2,37.9,30.36,South,180,0.0,1.3,95,0.06,,,1.02,WUHU21623XXSP,2013-01-30 03:00:00,
2013-01-29 19:05:00,39.4,38.0,30.36,SW,225,0.0,0.7,95,0.08,,,1.04,WUHU21623XXSP,2013-01-30 03:05:00,
2013-01-29 19:10:00,39.4,38.0,30.36,SW,225,0.0,0.9,95,0.08,,,1.04,WUHU21623XXSP,2013-01-30 03:10:00,
2013-01-29 19:15:00,39.4,38.0,30.35,SW,225,0.0,0.9,95,0.10,,,1.06,WUHU21623XXSP,2013-01-30 03:15:00,
2013-01-29 19:20:00,39.4,38.0,30.35,SW,225,0.0,0.0,95,0.10,,,1.06,WUHU21623XXSP,2013-01-30 03:20:00,
2013-01-29 19:25:00,39.4,38.0,30.35,SW,225,0.0,0.0,95,0.10,,,1.08,WUHU21623XXSP,2013-01-30 03:25:00,
2013-01-29 19:30:00,39.4,38.0,30.36,SW,225,1.3,1.3,95,0.10,,,1.08,WUHU21623XXSP,2013-01-30 03:30:00,
2013-01-29 19:35:00,39.4,38.0,30.35,SW,225,0.0,1.3,95,0.12,,,1.10,WUHU21623XXSP,2013-01-30 03:35:00,
2013-01-29 19:40:00,39.4,38.0,30.35,SW,225,0.0,0.7,95,0.10,,,1.10,WUHU21623XXSP,2013-01-30 03:40:00,
2013-01-29 19:45:00,39.4,38.0,30.35,SW,225,0.0,0.0,95,0.10,,,1.10,WUHU21623XXSP,2013-01-30 03:45:00,
2013-01-29 19:50:00,39.4,38.0,30.36,SW,225,0.0,0.0,95,0.10,,,1.12,WUHU21623XXSP,2013-01-30 03:50:00,
2013-01-29 19:55:00,39.4,38.0,30.36,SW,225,0.0,0.0,95,0.10,,,1.12,WUHU21623XXSP,2013-01-30 03:55:00,
2013-01-29 20:00:00,39.4,38.0,30.36,SW,225,0.0,0.0,95,0.10,,,1.14,WUHU21623XXSP,2013-01-30 04:00:00,
2013-01-29 20:05:00,39.4,38.0,30.36,SW,225,0.0,0.0,95,0.10,,,1.14,WUHU21623XXSP,2013-01-30 04:05:00,
2013-01-29 20:10:00,39.4,38.0,30.36,SW,225,0.0,0.0,95,0.12,,,1.16,WUHU21623XXSP,2013-01-30 04:10:00,
2013-01-29 20:15:00,39.4,38.0,30.36,SW,225,0.0,0.0,95,0.10,,,1.16,WUHU21623XXSP,2013-01-30 04:15:00,
2013-01-29 20:20:00,39.4,38.0,30.36,SW,225,0.0,0.0,95,0.10,,,1.18,WUHU21623XXSP,2013-01-30 04:20:00,
2013-01-29 20:25:00,39.4,38.0,30.36,SW,225,0.0,0.0,95,0.10,,,1.18,WUHU21623XXSP,2013-01-30 04:25:00,
2013-01-29 20:30:00,39.4,38.0,30.36,SW,225,0.0,0.0,95,0.12,,,1.20,WUHU21623XXSP,2013-01-30 04:30:00,
2013-01-29 20:35:00,39.6,38.2,30.36,SW,225,0.0,0.0,95,0.10,,,1.20,WUHU21623XXSP,2013-01-30 04:35:00,
2013-01-29 20:40:00,39.6,38.2,30.36,SW,225,0.0,0.9,95,0.10,,,1.20,WUHU21623XXSP,2013-01-30 04:40:00,
2013-01-29 20:45:00,39.6,38.2,30.35,SW,225,0.0,0.9,95,0.10,,,1.23,WUHU21623XXSP,2013-01-30 04:45:00,
2013-01-29 20:51:00,39.6,38.2,30.35,SW,225,0.0,0.0,95,0.10,,,1.23,WUHU21623XXSP,2013-01-30 04:51:00,
2013-01-29 20:56:00,39.6,38.2,30.36,SW,225,0.0,0.0,95,0.10,,,1.23,WUHU21623XXSP,2013-01-30 04:56:00,
2013-01-29 21:01:00,39.6,38.2,30.36,SW,225,0.0,0.0,95,0.08,,,1.23,WUHU21623XXSP,2013-01-30 05:01:00,
2013-01-29 21:02:00,39.6,38.2,30.36,SW,225,0.0,0.0,95,0.08,,,1.23,WUHU21623XXSP,2013-01-30 05:02:00,
2013-01-29 21:03:00,39.6,38.2,30.36,SW,225,0.0,0.0,95,0.10,,,1.25,WUHU21623XXSP,2013-01-30 05:03:00,
2013-01-29 21:08:00,39.6,38.2,30.36,SW,225,0.0,0.0,95,0.08,,,1.25,WUHU21623XXSP,2013-01-30 05:08:00,
2013-01-29 21:13:00,39.6,38.2,30.36,SW,225,0.0,0.0,95,0.08,,,1.25,WUHU21623XXSP,2013-01-30 05:13:00,
2013-01-29 21:18:00,39.7,38.7,30.36,SW,225,0.0,0.0,96,0.08,,,1.27,WUHU21623XXSP,2013-01-30 05:18:00,
2013-01-29 21:23:00,39.7,38.7,30.35,SW,225,0.0,0.0,96,0.08,,,1.27,WUHU21623XXSP,2013-01-30 05:23:00,
2013-01-29 21:28:00,39.7,38.7,30.35,South,180,2.5,2.9,96,0.08,,,1.29,WUHU21623XXSP,2013-01-30 05:28:00,
2013-01-29 21:33:00,39.7,38.7,30.35,South,180,0.9,3.1,96,0.08,,,1.29,WUHU21623XXSP,2013-01-30 05:33:00,
2013-01-29 21:39:00,39.7,38.7,30.35,South,180,0.0,3.1,96,0.08,,,1.29,WUHU21623XXSP,2013-01-30 05:39:00,
2013-01-29 21:44:00,39.7,38.7,30.34,South,180,0.0,2.2,96,0.08,,,1.29,WUHU21623XXSP,2013-01-30 05:44:00,
2013-01-29 21:49:00,39.7,38.7,30.34,South,180,0.0,2.0,96,0.08,,,1.31,WUHU21623XXSP,2013-01-30 05:49:00,
2013-01-29 21:54:00,39.7,38.7,30.35,South,180,0.0,1.6,96,0.08,,,1.31,WUHU21623XXSP,2013-01-30 05:54:00,
2013-01-29 21:59:00,39.7,38.7,30.35,South,180,1.8,1.8,96,0.10,,,1.33,WUHU21623XXSP,2013-01-30 05:59:00,
2013-01-29 22:04:00,39.7,38.7,30.35,South,180,0.0,1.8,96,0.08,,,1.33,WUHU21623XXSP,2013-01-30 06:04:00,
2013-01-29 22:09:00,39.7,38.7,30.35,South,180,0.0,0.9,96,0.08,,,1.33,WUHU21623XXSP,2013-01-30 06:09:00,
2013-01-29 22:14:00,39.7,38.7,30.35,South,180,0.0,0.0,96,0.08,,,1.33,WUHU21623XXSP,2013-01-30 06:14:00,
2013-01-29 22:19:00,39.7,38.7,30.35,South,180,0.0,1.1,96,0.06,,,1.33,WUHU21623XXSP,2013-01-30 06:19:00,
2013-01-29 22:24:00,39.7,38.7,30.35,South,180,0.0,1.1,96,0.06,,,1.33,WUHU21623XXSP,2013-01-30 06:24:00,
2013-01-29 22:29:00,39.7,38.7,30.34,South,180,0.0,1.3,96,0.04,,,1.33,WUHU21623XXSP,2013-01-30 06:29:00,
2013-01-29 22:34:00,39.7,38.7,30.35,South,180,0.0,3.1,96,0.06,,,1.35,WUHU21623XXSP,2013-01-30 06:34:00,
2013-01-29 22:39:00,39.9,38.8,30.34,South,180,0.2,3.1,96,0.06,,,1.35,WUHU21623XXSP,2013-01-30 06:39:00,
2013-01-29 22:44:00,39.9,38.8,30.35,SSE,157,2.5,3.1,96,0.04,,,1.35,WUHU21623XXSP,2013-01-30 06:44:00,
2013-01-29 22:49:00,39.9,38.8,30.35,SSE,157,0.0,3.1,96,0.04,,,1.35,WUHU21623XXSP,2013-01-30 06:49:00,
2013-01-29 22:54:00,39.9,38.8,30.35,SSE,157,0.0,2.0,96,0.06,,,1.37,WUHU21623XXSP,2013-01-30 06:54:00,
2013-01-29 22:59:00,39.9,38.8,30.35,SSE,157,0.0,2.0,96,0.06,,,1.39,WUHU21623XXSP,2013-01-30 06:59:00,
2013-01-29 23:04:00,40.1,39.0,30.35,SSE,157,0.0,2.0,96,0.06,,,1.39,WUHU21623XXSP,2013-01-30 07:04:00,
2013-01-29 23:09:00,40.1,39.0,30.35,SSE,157,0.0,1.1,96,0.06,,,1.39,WUHU21623XXSP,2013-01-30 07:09:00,
2013-01-29 23:14:00,40.1,39.0,30.35,SSE,157,0.0,1.6,96,0.08,,,1.41,WUHU21623XXSP,2013-01-30 07:14:00,
2013-01-29 23:19:00,40.3,39.2,30.35,SSE,157,0.0,1.6,96,0.08,,,1.41,WUHU21623XXSP,2013-01-30 07:19:00,
2013-01-29 23:24:00,40.3,39.2,30.36,SSE,157,1.3,1.6,96,0.10,,,1.43,WUHU21623XXSP,2013-01-30 07:24:00,
2013-01-29 23:29:00,40.3,39.2,30.36,SSE,157,0.0,1.6,96,0.10,,,1.43,WUHU21623XXSP,2013-01-30 07:29:00,
2013-01-29 23:34:00,40.3,39.2,30.36,SSE,157,1.3,2.0,96,0.08,,,1.43,WUHU21623XXSP,2013-01-30 07:34:00,
2013-01-29 23:39:00,40.3,39.2,30.35,SSE,157,0.0,2.0,96,0.08,,,1.43,WUHU21623XXSP,2013-01-30 07:39:00,
2013-01-29 23:44:00,40.3,39.2,30.36,SSE,157,0.9,2.0,96,0.10,,,1.45,WUHU21623XXSP,2013-01-30 07:44:00,
2013-01-29 23:49:00,40.3,39.2,30.36,SE,135,0.0,1.8,96,0.08,,,1.45,WUHU21623XXSP,2013-01-30 07:49:00,
2013-01-29 23:54:00,40.5,39.4,30.36,SE,135,0.0,1.8,96,0.08,,,1.45,WUHU21623XXSP,2013-01-30 07:54:00,
2013-01-29 23:59:00,40.6,39.6,30.36,ESE,112,0.0,0.0,96,0.06,,,1.45,WUHU21623XXSP,2013-01-30 07:59:00,